createdAt,value
2019-05-05T00:05:04.982Z,94.20
2019-05-05T00:10:31.883Z,94.30
2019-05-05T00:16:18.601Z,94.30
2019-05-05T00:21:34.416Z,94.30
2019-05-05T00:26:50.076Z,94.30
2019-05-05T00:32:06.117Z,94.40
2019-05-05T00:37:21.762Z,94.50
2019-05-05T00:42:37.368Z,94.60
2019-05-05T00:48:27.015Z,94.60
2019-05-05T00:53:44.761Z,94.70
2019-05-05T00:59:04.561Z,94.70
2019-05-05T01:04:25.169Z,94.80
2019-05-05T01:09:42.369Z,94.90
2019-05-05T01:14:57.890Z,94.90
2019-05-05T01:20:14.624Z,95.00
2019-05-05T01:25:30.452Z,95.00
2019-05-05T01:30:48.812Z,95.20
2019-05-05T01:36:04.754Z,95.20
2019-05-05T01:41:32.158Z,95.20
2019-05-05T01:46:47.918Z,95.30
2019-05-05T01:52:04.385Z,95.30
2019-05-05T01:57:21.078Z,95.30
2019-05-05T02:02:36.903Z,95.30
2019-05-05T02:07:52.743Z,95.30
2019-05-05T02:13:09.095Z,95.50
2019-05-05T02:18:25.405Z,95.80
2019-05-05T02:23:41.374Z,95.50
2019-05-05T02:29:07.128Z,95.60
2019-05-05T02:34:25.554Z,95.60
2019-05-05T02:39:48.270Z,95.60
2019-05-05T02:45:05.097Z,96.00
2019-05-05T02:50:20.237Z,95.70
2019-05-05T02:55:36.643Z,95.80
2019-05-05T03:01:14.696Z,95.80
2019-05-05T03:06:30.775Z,95.90
2019-05-05T03:11:50.043Z,95.90
2019-05-05T03:17:14.140Z,96.00
2019-05-05T03:22:29.535Z,96.10
2019-05-05T03:27:45.252Z,96.00
2019-05-05T03:33:01.230Z,96.10
2019-05-05T03:38:17.751Z,96.10
2019-05-05T03:43:37.425Z,96.30
2019-05-05T03:48:54.215Z,96.20
2019-05-05T03:54:10.499Z,96.20
2019-05-05T03:59:26.338Z,96.30
2019-05-05T04:04:54.799Z,96.30
2019-05-05T04:10:11.534Z,96.30
2019-05-05T04:15:27.461Z,96.40
2019-05-05T04:20:44.800Z,96.40
2019-05-05T04:26:00.528Z,96.40
2019-05-05T04:31:16.162Z,96.40
2019-05-05T04:36:33.908Z,96.50
2019-05-05T04:41:49.582Z,96.40
2019-05-05T04:47:11.900Z,96.40
2019-05-05T04:52:27.815Z,96.40
2019-05-05T04:57:43.872Z,96.50
2019-05-05T05:03:34.609Z,96.50
2019-05-05T05:08:50.694Z,96.50
2019-05-05T05:14:07.550Z,96.50
2019-05-05T05:19:24.172Z,96.70
2019-05-05T05:24:40.361Z,96.60
2019-05-05T05:29:56.202Z,96.70
2019-05-05T05:35:13.925Z,96.70
2019-05-05T05:40:36.086Z,96.70
2019-05-05T05:46:10.747Z,96.80
2019-05-05T05:51:26.503Z,96.80
2019-05-05T05:56:41.943Z,96.80
2019-05-05T06:02:09.160Z,96.80
2019-05-05T06:07:15.321Z,96.90
2019-05-05T06:12:30.789Z,96.90
2019-05-05T06:17:46.600Z,96.90
2019-05-05T06:23:04.095Z,96.90
2019-05-05T06:28:19.683Z,96.90
2019-05-05T06:33:35.166Z,97.00
2019-05-05T06:38:51.184Z,97.00
2019-05-05T06:44:37.775Z,97.00
2019-05-05T06:49:54.277Z,97.00
2019-05-05T06:55:10.490Z,97.00
2019-05-05T07:00:26.580Z,97.10
2019-05-05T07:05:43.795Z,97.10
2019-05-05T07:10:59.843Z,97.10
2019-05-05T07:16:16.097Z,97.10
2019-05-05T07:21:34.259Z,97.00
2019-05-05T07:26:49.981Z,97.00
2019-05-05T07:32:06.243Z,97.00
2019-05-05T07:37:23.820Z,97.10
2019-05-05T07:42:44.186Z,97.10
2019-05-05T07:48:00.032Z,97.00
2019-05-05T07:53:18.010Z,97.10
2019-05-05T07:58:34.536Z,97.00
2019-05-05T08:03:50.412Z,97.00
2019-05-05T08:09:07.896Z,97.00
2019-05-05T08:14:24.558Z,97.00
2019-05-05T08:19:46.937Z,97.00
2019-05-05T08:25:34.519Z,96.90
2019-05-05T08:31:01.237Z,97.00
2019-05-05T08:36:17.097Z,97.00
2019-05-05T08:41:33.816Z,96.90
2019-05-05T08:46:50.031Z,96.80
2019-05-05T08:52:05.990Z,96.70
2019-05-05T08:57:23.598Z,96.70
2019-05-05T09:02:39.319Z,96.50
2019-05-05T09:07:55.597Z,96.30
2019-05-05T09:13:11.345Z,96.10
2019-05-05T09:18:27.092Z,96.00
2019-05-05T09:23:58.675Z,95.90
2019-05-05T09:29:20.490Z,95.90
2019-05-05T09:34:36.219Z,95.70
2019-05-05T09:39:54.073Z,95.60
2019-05-05T09:45:10.705Z,95.10
2019-05-05T09:50:26.613Z,95.20
2019-05-05T09:55:44.283Z,95.30
2019-05-05T10:01:00.084Z,95.00
2019-05-05T10:06:16.043Z,95.10
2019-05-05T10:11:31.783Z,95.00
2019-05-05T10:16:49.192Z,94.80
2019-05-05T10:22:05.408Z,94.40
2019-05-05T10:27:21.225Z,94.30
2019-05-05T10:32:36.829Z,94.40
2019-05-05T10:37:54.558Z,94.30
2019-05-05T10:43:10.438Z,93.80
2019-05-05T10:48:26.836Z,94.00
2019-05-05T10:53:43.808Z,93.90
2019-05-05T10:59:00.363Z,93.70
2019-05-05T11:04:16.322Z,93.00
2019-05-05T11:09:33.753Z,93.10
2019-05-05T11:14:49.567Z,92.50
2019-05-05T11:20:05.652Z,92.30
2019-05-05T11:25:24.274Z,92.00
2019-05-05T11:30:45.494Z,91.80
2019-05-05T11:36:38.153Z,92.30
2019-05-05T11:41:54.775Z,92.10
2019-05-05T11:47:10.979Z,92.00
2019-05-05T11:52:26.779Z,91.60
2019-05-05T11:57:43.787Z,80.10
2019-05-05T12:02:59.608Z,69.20
2019-05-05T12:08:15.487Z,68.10
2019-05-05T12:13:31.300Z,66.20
2019-05-05T12:18:47.185Z,62.80
2019-05-05T12:24:07.181Z,69.30
2019-05-05T12:29:26.777Z,75.80
2019-05-05T12:34:45.337Z,80.30
2019-05-05T12:40:03.966Z,83.10
2019-05-05T12:45:24.126Z,84.30
2019-05-05T12:50:40.263Z,85.00
2019-05-05T12:55:56.024Z,84.90
2019-05-05T13:01:17.383Z,85.00
2019-05-05T13:06:34.598Z,83.70
2019-05-05T13:11:50.245Z,82.80
2019-05-05T13:17:06.102Z,81.80
2019-05-05T13:22:44.396Z,81.00
2019-05-05T13:28:00.186Z,79.80
2019-05-05T13:33:16.114Z,78.90
2019-05-05T13:38:31.983Z,77.80
2019-05-05T13:43:47.731Z,76.60
2019-05-05T13:49:20.949Z,53.20
2019-05-05T13:54:38.321Z,51.30
2019-05-05T13:59:54.602Z,48.30
2019-05-05T14:05:11.055Z,49.20
2019-05-05T14:10:26.803Z,48.90
2019-05-05T14:15:44.074Z,47.00
2019-05-05T14:20:59.648Z,48.60
2019-05-05T14:26:24.758Z,48.80
2019-05-05T14:31:36.726Z,46.00
2019-05-05T14:37:11.296Z,47.00
2019-05-05T14:42:26.951Z,49.90
2019-05-05T14:47:44.170Z,53.10
2019-05-05T14:53:00.145Z,55.10
2019-05-05T14:58:16.259Z,56.20
2019-05-05T15:03:33.662Z,56.80
2019-05-05T15:09:04.857Z,56.90
2019-05-05T15:14:29.327Z,56.70
2019-05-05T15:19:48.810Z,56.50
2019-05-05T15:25:05.335Z,56.10
2019-05-05T15:30:24.953Z,55.50
2019-05-05T15:35:39.294Z,55.20
2019-05-05T15:40:54.965Z,54.80
2019-05-05T15:46:10.996Z,54.40
2019-05-05T15:51:26.675Z,54.20
2019-05-05T15:56:42.497Z,54.30
2019-05-05T16:01:58.535Z,53.90
2019-05-05T16:07:14.329Z,53.60
2019-05-05T16:12:34.113Z,53.30
2019-05-05T16:17:53.310Z,53.00
2019-05-05T16:23:17.127Z,52.60
2019-05-05T16:28:34.291Z,52.30
2019-05-05T16:33:49.906Z,51.90
2019-05-05T16:39:07.411Z,51.70
2019-05-05T16:44:24.399Z,51.50
2019-05-05T16:49:40.450Z,51.30
2019-05-05T16:55:04.673Z,51.20
2019-05-05T17:00:25.698Z,51.00
2019-05-05T17:05:40.184Z,50.90
2019-05-05T17:10:57.229Z,50.60
2019-05-05T17:16:37.389Z,50.40
2019-05-05T17:22:27.653Z,50.30
2019-05-05T17:27:48.794Z,50.20
2019-05-05T17:33:00.659Z,50.00
2019-05-05T17:38:17.297Z,49.80
2019-05-05T17:43:47.594Z,49.70
2019-05-05T17:49:17.786Z,49.50
2019-05-05T17:54:56.245Z,49.40
2019-05-05T18:00:24.356Z,49.40
2019-05-05T18:06:07.346Z,49.40
2019-05-05T18:11:44.080Z,49.40
2019-05-05T18:17:00.393Z,49.30
2019-05-05T18:22:16.471Z,49.20
2019-05-05T18:27:34.426Z,49.10
2019-05-05T18:32:50.515Z,49.10
2019-05-05T18:38:06.556Z,48.90
2019-05-05T18:43:39.842Z,48.90
2019-05-05T18:48:55.874Z,48.90
2019-05-05T18:54:11.742Z,49.00
2019-05-05T18:59:27.738Z,49.00
2019-05-05T19:04:58.895Z,49.00
2019-05-05T19:10:15.007Z,49.10
2019-05-05T19:15:30.959Z,49.30
2019-05-05T19:21:04.312Z,49.20
2019-05-05T19:26:20.087Z,49.30
2019-05-05T19:31:36.741Z,49.30
2019-05-05T19:36:54.687Z,49.30
2019-05-05T19:42:10.512Z,49.30
2019-05-05T19:47:26.354Z,49.20
2019-05-05T19:52:44.037Z,49.30
2019-05-05T19:57:59.755Z,49.20
2019-05-05T20:03:15.597Z,49.30
2019-05-05T20:08:40.535Z,49.30
2019-05-05T20:13:48.730Z,49.30
2019-05-05T20:19:05.133Z,49.40
2019-05-05T20:24:23.996Z,49.30
2019-05-05T20:29:39.963Z,49.40
2019-05-05T20:35:14.822Z,49.30
2019-05-05T20:40:40.492Z,49.40
2019-05-05T20:45:56.862Z,49.40
2019-05-05T20:51:13.839Z,49.50
2019-05-05T20:56:44.358Z,49.50
2019-05-05T21:02:00.780Z,49.50
2019-05-05T21:07:23.143Z,49.40
2019-05-05T21:12:45.765Z,49.50
2019-05-05T21:18:04.843Z,49.70
2019-05-05T21:23:29.487Z,49.40
2019-05-05T21:28:57.045Z,49.40
2019-05-05T21:34:14.030Z,49.40
2019-05-05T21:39:34.876Z,49.50
2019-05-05T21:44:54.078Z,49.30
2019-05-05T21:50:20.165Z,49.40
2019-05-05T21:55:55.340Z,49.50
2019-05-05T22:01:15.292Z,49.50
2019-05-05T22:06:33.563Z,49.50
2019-05-05T22:11:48.814Z,49.50
2019-05-05T22:17:04.540Z,49.60
2019-05-05T22:22:22.285Z,49.60
2019-05-05T22:27:38.030Z,49.70
2019-05-05T22:32:53.439Z,49.80
2019-05-05T22:38:09.216Z,49.90
2019-05-05T22:43:25.847Z,49.90
2019-05-05T22:48:44.066Z,49.90
2019-05-05T22:53:59.896Z,49.90
2019-05-05T22:59:15.468Z,50.00
2019-05-05T23:04:47.866Z,49.90
2019-05-05T23:10:04.664Z,50.10
2019-05-05T23:15:20.625Z,50.00
2019-05-05T23:21:15.580Z,50.00
2019-05-05T23:26:31.484Z,50.10
2019-05-05T23:31:47.513Z,50.10
2019-05-05T23:37:04.321Z,50.30
2019-05-05T23:42:20.473Z,50.30
2019-05-05T23:47:36.345Z,50.30
2019-05-05T23:52:54.161Z,50.20
2019-05-05T23:58:10.008Z,50.30
